Time;durP1;ratioP1;P1;durP2;ratioP2;P2;SDS_P1;SDS_P2;PMS_P1;PMS_P2;Temp;Humidity;BMP_temperature;BMP_pressure;BME280_temperature;BME280_humidity;BME280_pressure;Samples;Min_cycle;Max_cycle;Signal;HPM_P1;HPM_P2
2022/05/23 00:01:36;;;;;;;10.23;4.15;;;;;;;18.30;58.92;100662.56;5055465;28;20063;-47
2022/05/23 00:04:04;;;;;;;8.23;3.53;;;;;;;18.30;58.79;100665.34;5030927;28;20462;-46
2022/05/23 00:06:37;;;;;;;11.63;4.35;;;;;;;18.30;58.93;100649.63;5033687;28;20140;-48
2022/05/23 00:09:13;;;;;;;10.90;3.72;;;;;;;18.28;58.93;100649.13;5026660;28;20053;-46
2022/05/23 00:12:00;;;;;;;10.52;4.20;;;;;;;18.23;58.97;100635.50;5034851;28;20072;-45
2022/05/23 00:14:49;;;;;;;11.70;4.70;;;;;;;18.13;59.52;100624.78;5046867;28;20056;-45
2022/05/23 00:17:36;;;;;;;10.45;4.40;;;;;;;18.08;59.48;100627.69;5041419;28;20052;-48
2022/05/23 00:20:26;;;;;;;8.75;3.95;;;;;;;17.99;59.62;100624.94;5054463;28;20045;-45
2022/05/23 00:23:14;;;;;;;8.93;4.45;;;;;;;17.96;59.89;100627.53;5053294;28;20045;-47
2022/05/23 00:26:01;;;;;;;13.95;3.85;;;;;;;17.97;59.92;100631.91;5035697;28;20049;-46
2022/05/23 00:28:29;;;;;;;12.40;4.47;;;;;;;18.00;59.58;100631.25;5036313;28;20045;-49
2022/05/23 00:30:57;;;;;;;9.85;4.63;;;;;;;18.03;59.63;100630.59;5017318;28;20049;-47
2022/05/23 00:36:12;;;;;;;11.43;4.32;;;;;;;18.01;59.29;100625.41;5035917;28;20451;-47
2022/05/23 00:38:40;;;;;;;7.40;3.47;;;;;;;17.97;59.58;100627.22;5017369;28;20037;-45
2022/05/23 00:44:26;;;;;;;9.15;4.20;;;;;;;17.84;59.69;100628.97;5052381;28;20041;-46
2022/05/23 00:47:17;;;;;;;;;;;;;;;17.84;59.94;100628.97;5052205;28;20419;-46
2022/05/23 00:49:46;;;;;;;9.43;3.90;;;;;;;17.83;59.60;100630.09;5053416;28;20023;-43
2022/05/23 00:52:42;;;;;;;11.48;4.05;;;;;;;17.82;59.81;100613.88;5051892;28;20048;-46
2022/05/23 00:55:33;;;;;;;10.00;3.72;;;;;;;17.81;59.97;100613.06;5026706;28;20127;-48
2022/05/23 00:58:37;;;;;;;12.57;4.10;;;;;;;17.81;60.14;100607.56;5051073;28;20045;-42
2022/05/23 01:01:29;;;;;;;10.25;4.10;;;;;;;17.79;60.33;100604.28;5043689;28;20103;-45
2022/05/23 01:04:17;;;;;;;8.57;3.75;;;;;;;17.79;60.45;100608.97;5035103;28;20045;-47
2022/05/23 01:07:05;;;;;;;8.98;3.85;;;;;;;17.77;60.41;100601.03;5034295;28;20133;-46
2022/05/23 01:09:53;;;;;;;15.05;4.40;;;;;;;17.74;60.55;100589.84;5030577;28;20103;-47
2022/05/23 01:12:42;;;;;;;14.30;3.80;;;;;;;17.72;60.56;100587.41;5032136;28;20077;-50
2022/05/23 01:15:34;;;;;;;8.23;3.58;;;;;;;17.71;60.89;100585.81;5032258;28;20488;-45
2022/05/23 01:18:09;;;;;;;9.77;3.42;;;;;;;17.75;60.78;100581.28;5001941;28;20504;-46
2022/05/23 01:21:00;;;;;;;9.05;3.83;;;;;;;17.77;60.83;100590.00;5030358;28;20112;-43
2022/05/23 01:23:52;;;;;;;10.18;3.47;;;;;;;17.75;61.00;100595.06;5031267;28;20073;-48
2022/05/23 01:26:42;;;;;;;8.30;3.25;;;;;;;17.74;60.85;100598.94;5032950;28;20057;-47
2022/05/23 01:29:36;;;;;;;12.10;3.50;;;;;;;17.73;60.81;100602.81;5030358;28;20057;-47
2022/05/23 01:32:31;;;;;;;9.43;3.53;;;;;;;17.71;60.70;100602.34;5041313;28;20162;-47
2022/05/23 01:35:19;;;;;;;9.90;3.20;;;;;;;17.68;61.04;100592.75;5048243;28;20052;-47
2022/05/23 01:37:47;;;;;;;11.45;3.53;;;;;;;17.68;60.82;100592.75;5050748;28;20111;-47
2022/05/23 01:40:34;;;;;;;8.68;3.70;;;;;;;17.66;61.13;100588.72;5016181;28;20048;-50
2022/05/23 01:43:05;;;;;;;8.70;3.22;;;;;;;17.64;61.31;100590.97;5009157;28;20060;-48
2022/05/23 01:45:40;;;;;;;8.80;3.75;;;;;;;17.63;61.11;100584.66;5048720;28;20044;-46
2022/05/23 01:48:29;;;;;;;11.25;3.55;;;;;;;17.60;61.40;100582.53;5033885;28;20053;-46
2022/05/23 01:50:57;;;;;;;10.95;3.60;;;;;;;17.55;61.42;100581.88;5052392;28;20043;-46
2022/05/23 01:53:28;;;;;;;8.98;3.50;;;;;;;17.49;61.98;100583.19;5027812;28;20060;-43
2022/05/23 01:56:06;;;;;;;7.25;3.17;;;;;;;17.45;61.89;100581.03;5035451;28;20049;-43
2022/05/23 02:01:58;;;;;;;8.02;3.08;;;;;;;17.45;62.17;100582.97;5007442;28;20053;-47
2022/05/23 02:04:34;;;;;;;7.88;3.47;;;;;;;17.41;62.36;100582.84;5015946;28;20053;-42
2022/05/23 02:07:05;;;;;;;8.85;3.30;;;;;;;17.39;62.52;100579.56;5022638;28;20061;-46
2022/05/23 02:09:55;;;;;;;10.13;3.75;;;;;;;17.37;62.57;100579.09;5032041;28;20050;-48
2022/05/23 02:12:26;;;;;;;12.43;4.07;;;;;;;17.34;62.83;100573.38;5032391;28;20051;-47
2022/05/23 02:15:16;;;;;;;10.40;3.30;;;;;;;17.30;62.92;100564.97;5033069;28;20045;-47
2022/05/23 02:18:23;;;;;;;10.85;3.10;;;;;;;17.27;63.17;100557.34;5037790;28;20037;-45
2022/05/23 02:21:11;;;;;;;8.55;3.33;;;;;;;17.27;63.20;100553.75;5037795;28;20045;-50
2022/05/23 02:23:40;;;;;;;8.65;3.40;;;;;;;17.28;62.95;100555.41;5047417;28;20140;-47
2022/05/23 02:26:09;;;;;;;9.10;3.40;;;;;;;17.26;63.40;100547.44;5035085;28;20045;-46
2022/05/23 02:28:54;;;;;;;10.25;3.70;;;;;;;17.22;63.52;100554.72;5035826;28;20037;-48
2022/05/23 02:31:27;;;;;;;7.85;3.38;;;;;;;17.22;63.59;100551.97;5045558;28;20044;-46
2022/05/23 02:33:58;;;;;;;7.97;3.38;;;;;;;17.21;63.95;100550.34;5032363;28;20124;-46
2022/05/23 02:36:37;;;;;;;7.50;3.13;;;;;;;17.20;63.79;100540.50;5043271;28;20038;-46
2022/05/23 02:39:07;;;;;;;10.25;3.40;;;;;;;17.21;64.25;100544.84;5015247;28;20045;-45
2022/05/23 02:41:35;;;;;;;8.65;3.70;;;;;;;17.23;63.97;100537.09;5021038;28;20048;-48
2022/05/23 02:44:06;;;;;;;9.85;3.88;;;;;;;17.25;63.91;100538.38;5006149;28;20049;-46
2022/05/23 02:46:35;;;;;;;7.40;3.22;;;;;;;17.25;63.84;100530.13;5019202;28;20041;-47
2022/05/23 02:49:13;;;;;;;7.78;3.25;;;;;;;17.25;64.29;100534.84;5035254;28;20075;-44
2022/05/23 02:51:59;;;;;;;8.50;3.40;;;;;;;17.25;64.01;100521.88;5020735;28;20052;-47
2022/05/23 02:54:49;;;;;;;11.63;4.07;;;;;;;17.22;64.41;100514.25;5017960;28;20056;-46
2022/05/23 02:57:37;;;;;;;11.90;4.13;;;;;;;17.23;64.37;100512.31;5030219;28;20046;-47
2022/05/23 03:00:33;;;;;;;10.88;3.78;;;;;;;17.23;64.45;100501.28;5019108;28;20099;-46
2022/05/23 03:03:25;;;;;;;9.35;3.88;;;;;;;17.24;64.63;100495.47;5025953;28;20045;-47
2022/05/23 03:06:00;;;;;;;9.80;3.30;;;;;;;17.25;64.72;100490.78;5047101;28;20183;-46
2022/05/23 03:08:51;;;;;;;12.02;4.35;;;;;;;17.21;64.72;100478.78;5018492;28;20056;-48
2022/05/23 03:11:39;;;;;;;10.85;4.30;;;;;;;17.20;64.51;100471.66;5030962;28;20049;-42
2022/05/23 03:14:27;;;;;;;13.38;4.40;;;;;;;17.18;64.99;100451.88;5030917;28;20042;-47
2022/05/23 03:17:17;;;;;;;9.98;3.90;;;;;;;17.11;65.53;100433.09;5039270;28;20046;-47
2022/05/23 03:20:07;;;;;;;10.05;3.83;;;;;;;17.03;65.72;100440.19;5034873;28;20041;-42
2022/05/23 03:28:11;;;;;;;9.45;3.60;;;;;;;16.97;66.64;100418.66;5051552;28;20033;-45
2022/05/23 03:30:39;;;;;;;10.98;4.07;;;;;;;16.94;66.77;100417.34;5035885;28;20077;-42
2022/05/23 03:33:07;;;;;;;10.32;4.32;;;;;;;16.93;66.63;100426.75;5049199;28;20396;-42
2022/05/23 03:35:35;;;;;;;10.43;4.15;;;;;;;16.94;66.93;100425.59;5051016;28;20073;-41
2022/05/23 03:38:04;;;;;;;10.07;3.75;;;;;;;16.99;66.77;100428.22;5054179;28;20041;-42
2022/05/23 03:40:37;;;;;;;11.18;4.45;;;;;;;17.02;66.51;100418.50;5054649;28;20043;-48
2022/05/23 03:43:14;;;;;;;11.05;4.45;;;;;;;17.03;66.85;100406.38;5038084;28;20041;-47
2022/05/23 03:45:46;;;;;;;10.27;4.63;;;;;;;17.01;67.10;100401.19;5032195;28;20045;-45
2022/05/23 03:48:34;;;;;;;12.57;4.43;;;;;;;16.97;67.42;100402.94;5033436;28;20469;-44
2022/05/23 03:51:19;;;;;;;8.20;3.75;;;;;;;16.92;67.82;100400.34;5034285;28;20128;-47
2022/05/23 03:53:50;;;;;;;12.10;4.70;;;;;;;16.90;67.99;100390.78;5034569;28;20496;-49
2022/05/23 03:56:34;;;;;;;11.80;4.50;;;;;;;16.85;68.18;100385.44;5022376;28;20385;-48
2022/05/23 03:59:21;;;;;;;10.38;4.57;;;;;;;16.86;68.42;100387.06;5035488;28;20117;-41
2022/05/23 04:02:14;;;;;;;9.30;4.13;;;;;;;16.83;68.69;100389.31;5033635;28;20049;-41
2022/05/23 04:05:02;;;;;;;11.45;4.78;;;;;;;16.80;69.15;100381.72;5034140;28;20053;-41
2022/05/23 04:08:18;;;;;;;12.88;4.68;;;;;;;16.79;69.30;100382.06;5034947;28;20053;-49
2022/05/23 04:11:11;;;;;;;8.75;4.20;;;;;;;16.79;69.09;100379.28;5043001;28;20053;-46
2022/05/23 04:13:59;;;;;;;12.95;4.60;;;;;;;16.83;69.49;100375.56;5033389;28;20045;-48
2022/05/23 04:16:29;;;;;;;16.30;4.53;;;;;;;16.89;69.15;100376.22;5033858;28;20091;-46
2022/05/23 04:18:58;;;;;;;12.07;4.68;;;;;;;16.93;69.31;100376.38;5034083;28;20042;-48
2022/05/23 04:21:26;;;;;;;16.70;4.93;;;;;;;16.89;69.35;100373.47;5041229;28;20466;-46
2022/05/23 04:23:55;;;;;;;13.85;4.07;;;;;;;16.90;69.72;100382.53;5050597;28;20099;-44
2022/05/23 04:26:23;;;;;;;14.68;5.28;;;;;;;16.90;69.86;100374.28;5049516;28;20496;-45
2022/05/23 04:28:51;;;;;;;15.88;5.15;;;;;;;16.86;70.13;100370.53;5033563;28;20488;-45
2022/05/23 04:31:19;;;;;;;10.50;5.65;;;;;;;16.77;71.01;100359.50;5032968;28;20115;-46
2022/05/23 04:37:06;;;;;;;12.10;5.40;;;;;;;16.75;71.32;100345.25;5020322;28;20508;-41
2022/05/23 04:39:45;;;;;;;13.05;5.28;;;;;;;16.73;71.56;100342.00;5017546;28;20046;-42
2022/05/23 04:42:14;;;;;;;9.80;4.75;;;;;;;16.76;71.74;100341.38;5033262;28;20093;-45
2022/05/23 04:44:56;;;;;;;12.77;4.55;;;;;;;16.80;71.33;100354.19;5019498;28;20136;-44
2022/05/23 04:50:36;;;;;;;14.90;5.10;;;;;;;16.89;71.35;100350.66;5032757;28;20431;-48
2022/05/23 04:53:25;;;;;;;10.35;5.30;;;;;;;16.90;71.82;100344.00;5032041;28;20553;-42
2022/05/23 04:56:31;;;;;;;12.00;5.38;;;;;;;16.87;71.84;100342.72;5052165;28;20041;-46
2022/05/23 04:59:29;;;;;;;16.55;5.80;;;;;;;16.83;72.44;100337.03;5050541;28;20111;-47
2022/05/23 05:02:16;;;;;;;12.27;5.90;;;;;;;16.82;73.10;100324.41;5051445;28;20135;-44
2022/05/23 05:05:07;;;;;;;15.15;5.95;;;;;;;16.82;72.95;100321.66;5051207;28;20052;-46
2022/05/23 05:08:08;;;;;;;10.60;5.15;;;;;;;16.83;73.11;100317.78;5040606;28;20112;-46
2022/05/23 05:10:54;;;;;;;12.32;5.88;;;;;;;16.87;73.23;100314.41;5037454;28;20087;-47
2022/05/23 05:13:43;;;;;;;13.27;5.13;;;;;;;16.90;73.33;100317.28;5037494;28;20033;-48
2022/05/23 05:16:19;;;;;;;12.80;5.47;;;;;;;16.94;73.36;100321.03;5042831;28;20043;-47
2022/05/23 05:18:46;;;;;;;10.73;6.10;;;;;;;16.97;73.35;100317.63;5036257;28;20504;-48
2022/05/23 05:21:43;;;;;;;9.15;5.05;;;;;;;16.98;73.50;100316.50;5033848;28;20041;-47
2022/05/23 05:24:53;;;;;;;11.88;5.57;;;;;;;17.05;73.29;100302.25;5030895;28;20045;-50
2022/05/23 05:27:35;;;;;;;10.80;5.68;;;;;;;17.10;72.75;100298.50;4317465;28;10001556;-48
2022/05/23 05:30:05;;;;;;;12.32;5.38;;;;;;;17.13;72.73;100284.13;5020927;28;20042;-49
2022/05/23 05:33:02;;;;;;;12.80;4.93;;;;;;;17.15;72.52;100277.16;5029943;28;20043;-51
2022/05/23 05:35:38;;;;;;;13.80;6.38;;;;;;;17.16;72.97;100284.28;5029893;28;20053;-46
2022/05/23 05:38:18;;;;;;;14.23;6.40;;;;;;;17.16;73.30;100273.25;5027825;28;20049;-47
2022/05/23 05:40:53;;;;;;;11.95;6.00;;;;;;;17.17;73.04;100265.81;5037027;28;20038;-46
2022/05/23 05:43:43;;;;;;;11.52;5.72;;;;;;;17.20;72.79;100262.41;5024070;28;20048;-46
2022/05/23 05:46:29;;;;;;;9.88;4.68;;;;;;;17.25;72.41;100265.00;5022277;28;20056;-46
2022/05/23 05:49:29;;;;;;;10.20;4.75;;;;;;;17.27;72.67;100256.38;5044372;28;20052;-48
2022/05/23 05:52:24;;;;;;;12.13;6.10;;;;;;;17.31;72.46;100260.91;5014927;28;20439;-48
2022/05/23 05:55:17;;;;;;;13.47;4.87;;;;;;;17.36;71.96;100259.94;5017305;28;20064;-51
2022/05/23 05:58:10;;;;;;;15.13;4.95;;;;;;;17.44;72.08;100250.88;5044768;28;20450;-49
2022/05/23 06:01:06;;;;;;;12.40;4.70;;;;;;;17.51;71.49;100255.84;5035274;28;20052;-47
2022/05/23 06:03:54;;;;;;;14.73;5.70;;;;;;;17.50;71.38;100246.78;5027590;28;20077;-49
2022/05/23 06:12:36;;;;;;;13.90;5.93;;;;;;;17.54;71.48;100233.97;5030895;28;20049;-46
2022/05/23 06:15:23;;;;;;;12.75;6.47;;;;;;;17.57;71.53;100232.50;5046940;28;20464;-47
2022/05/23 06:17:52;;;;;;;11.88;5.78;;;;;;;17.55;71.59;100232.03;5024350;28;20424;-48
2022/05/23 06:20:22;;;;;;;12.55;5.90;;;;;;;17.54;71.68;100233.16;5044613;28;20049;-42
2022/05/23 06:22:51;;;;;;;12.18;5.90;;;;;;;17.57;71.17;100230.56;5044703;28;20120;-47
2022/05/23 06:25:20;;;;;;;8.77;4.68;;;;;;;17.59;70.78;100224.72;5035942;28;20036;-47
2022/05/23 06:27:51;;;;;;;13.65;5.90;;;;;;;17.60;71.37;100227.13;5044989;28;20102;-42
2022/05/23 06:30:23;;;;;;;11.07;5.15;;;;;;;17.66;70.65;100220.31;5039127;28;20159;-48
2022/05/23 06:33:04;;;;;;;11.05;4.78;;;;;;;17.72;70.38;100223.69;5013723;28;20067;-48
2022/05/23 06:36:02;;;;;;;11.45;5.40;;;;;;;17.77;69.99;100211.66;5027091;28;20060;-49
2022/05/23 06:38:50;;;;;;;11.48;5.63;;;;;;;17.78;69.62;100211.34;5028598;28;20081;-47
2022/05/23 06:42:03;;;;;;;10.63;5.25;;;;;;;17.83;69.20;100211.19;5032925;28;20563;-46
2022/05/23 06:45:14;;;;;;;13.55;5.30;;;;;;;17.83;69.07;100205.69;5047318;28;20060;-48
2022/05/23 06:48:31;;;;;;;19.40;6.25;;;;;;;17.89;68.73;100198.00;5035874;28;20120;-43
2022/05/23 06:51:08;;;;;;;17.58;5.47;;;;;;;17.95;68.40;100193.16;5042494;28;20051;-43
2022/05/23 06:53:57;;;;;;;10.63;5.53;;;;;;;17.95;68.39;100184.88;5018566;28;20049;-49
2022/05/23 06:57:05;;;;;;;12.80;5.40;;;;;;;18.01;67.95;100181.56;5034123;28;20543;-47
2022/05/23 06:59:53;;;;;;;14.40;6.57;;;;;;;18.05;67.87;100195.50;5044291;28;20048;-48
2022/05/23 07:02:22;;;;;;;15.15;5.30;;;;;;;18.10;67.80;100192.56;5039251;28;20140;-46
2022/05/23 07:14:05;;;;;;;10.73;5.03;;;;;;;18.23;68.23;100188.75;5039409;28;20046;-48
2022/05/23 07:16:33;;;;;;;14.52;5.03;;;;;;;18.26;67.76;100182.56;5052934;28;20099;-46
2022/05/23 07:19:04;;;;;;;12.20;5.60;;;;;;;18.28;67.87;100180.28;5053153;28;20124;-50
2022/05/23 07:21:40;;;;;;;15.45;5.75;;;;;;;18.29;67.46;100189.34;5018779;28;20044;-46
2022/05/23 07:24:21;;;;;;;16.88;6.13;;;;;;;18.30;67.08;100183.50;5034454;28;20045;-47
2022/05/23 07:26:56;;;;;;;16.52;5.93;;;;;;;18.33;66.97;100192.22;5036944;28;20052;-48
2022/05/23 07:29:34;;;;;;;13.13;6.10;;;;;;;18.30;67.28;100188.19;5050241;28;20041;-48
2022/05/23 07:32:29;;;;;;;14.13;5.03;;;;;;;18.25;67.14;100197.47;5049133;28;20045;-48
2022/05/23 07:34:57;;;;;;;15.30;5.53;;;;;;;18.26;67.12;100185.31;5041785;28;20128;-49
2022/05/23 07:37:42;;;;;;;10.73;4.70;;;;;;;18.28;67.99;100168.44;5037318;28;20041;-48
2022/05/23 07:40:30;;;;;;;13.88;5.38;;;;;;;18.29;67.71;100170.03;5040907;28;20099;-49
2022/05/23 07:43:24;;;;;;;13.05;5.43;;;;;;;18.30;67.95;100177.16;5044785;28;20041;-48
2022/05/23 07:46:08;;;;;;;10.88;5.78;;;;;;;18.31;67.66;100174.06;5018610;28;20068;-47
2022/05/23 07:48:58;;;;;;;16.00;5.95;;;;;;;18.33;67.77;100175.69;5049743;28;20076;-45
2022/05/23 07:51:33;;;;;;;12.35;4.78;;;;;;;18.34;67.31;100166.28;5054377;28;20506;-47
2022/05/23 08:01:05;;;;;;;9.63;4.35;;;;;;;18.41;66.44;100159.06;5033131;28;20457;-47
2022/05/23 08:03:33;;;;;;;11.23;4.90;;;;;;;18.44;65.87;100165.88;5035418;28;20042;-47
2022/05/23 08:06:32;;;;;;;10.13;4.75;;;;;;;18.45;65.55;100154.50;5035711;28;20076;-48
2022/05/23 08:09:01;;;;;;;13.25;4.80;;;;;;;18.48;65.60;100161.28;5034292;28;20128;-42
2022/05/23 08:11:29;;;;;;;16.92;5.50;;;;;;;18.51;65.61;100155.91;5033966;28;20124;-48
2022/05/23 08:14:07;;;;;;;14.20;4.65;;;;;;;18.51;65.87;100160.63;5018863;28;20041;-48
2022/05/23 08:16:46;;;;;;;12.85;4.57;;;;;;;18.52;66.30;100151.22;5035761;28;20058;-47
2022/05/23 08:19:23;;;;;;;11.48;4.90;;;;;;;18.56;66.25;100151.31;5019033;28;20033;-46
2022/05/23 08:21:55;;;;;;;12.23;5.43;;;;;;;18.56;66.24;100151.31;5034246;28;20057;-48
2022/05/23 08:24:24;;;;;;;8.35;4.50;;;;;;;18.57;66.40;100139.97;5033809;28;20041;-47
2022/05/23 08:26:55;;;;;;;10.95;4.95;;;;;;;18.63;66.42;100135.03;4987958;28;20041;-46
2022/05/23 08:29:31;;;;;;;14.70;4.60;;;;;;;18.70;66.17;100138.84;5018478;28;20046;-47
2022/05/23 08:32:17;;;;;;;13.60;5.13;;;;;;;18.78;65.82;100136.38;5035644;28;20045;-49
2022/05/23 08:35:02;;;;;;;11.15;4.70;;;;;;;18.81;65.75;100127.41;5017928;28;20042;-46
2022/05/23 08:37:52;;;;;;;13.85;4.68;;;;;;;18.86;65.09;100127.22;5040024;28;20045;-50
2022/05/23 08:41:02;;;;;;;14.35;4.80;;;;;;;18.87;65.22;100117.78;5039304;28;20048;-47
2022/05/23 08:43:50;;;;;;;10.50;4.40;;;;;;;18.88;65.20;100117.44;5037433;28;20499;-46
2022/05/23 08:46:45;;;;;;;13.20;5.00;;;;;;;18.87;64.77;100124.09;5051107;28;20087;-48
2022/05/23 08:49:46;;;;;;;10.73;4.47;;;;;;;18.86;64.72;100121.69;5044684;28;20045;-47
2022/05/23 08:52:45;;;;;;;15.25;4.90;;;;;;;18.87;65.06;100115.00;5051024;28;20045;-46
2022/05/23 08:55:55;;;;;;;11.13;4.82;;;;;;;18.89;64.80;100112.72;5053439;28;20150;-48
2022/05/23 08:58:54;;;;;;;12.98;4.97;;;;;;;18.91;64.83;100107.66;5033431;28;20115;-48
2022/05/23 09:01:38;;;;;;;8.63;4.30;;;;;;;18.94;64.97;100107.78;5000548;28;20049;-47
2022/05/23 09:04:20;;;;;;;12.90;5.10;;;;;;;18.95;65.54;100100.28;5000683;28;20073;-47
2022/05/23 09:06:49;;;;;;;19.35;5.18;;;;;;;18.97;66.06;100092.47;5034373;28;20484;-44
2022/05/23 09:09:20;;;;;;;13.07;4.70;;;;;;;18.97;65.52;100084.19;5033246;28;20079;-53
2022/05/23 09:11:52;;;;;;;10.98;4.47;;;;;;;19.00;65.58;100091.81;5032659;28;20554;-50
2022/05/23 09:14:20;;;;;;;9.40;4.30;;;;;;;19.00;65.86;100096.50;5016693;28;20124;-46
2022/05/23 09:16:53;;;;;;;11.00;4.68;;;;;;;18.99;65.89;100083.88;5033270;28;20050;-52
2022/05/23 09:20:06;;;;;;;9.77;4.07;;;;;;;18.98;66.05;100074.78;5048961;28;20076;-48
2022/05/23 09:22:50;;;;;;;9.93;4.80;;;;;;;18.99;67.18;100064.53;5032006;28;20045;-44
2022/05/23 09:25:26;;;;;;;11.32;5.00;;;;;;;18.99;66.84;100054.28;5036097;28;20064;-48
2022/05/23 09:28:14;;;;;;;9.95;4.55;;;;;;;19.01;66.72;100048.44;5038543;28;20049;-48
2022/05/23 09:30:46;;;;;;;13.60;5.18;;;;;;;19.01;66.37;100046.47;5032548;28;20057;-45
2022/05/23 09:33:28;;;;;;;10.70;4.95;;;;;;;19.03;65.96;100032.34;5018271;28;20530;-47
2022/05/23 09:36:21;;;;;;;11.68;4.90;;;;;;;19.04;65.63;100028.41;5004672;28;20065;-48
2022/05/23 09:39:11;;;;;;;9.43;4.50;;;;;;;19.05;66.16;100025.31;5051122;28;20041;-48
2022/05/23 09:48:28;;;;;;;9.95;4.75;;;;;;;19.15;66.35;100015.78;5033399;28;20054;-47
2022/05/23 09:51:16;;;;;;;10.15;4.70;;;;;;;19.18;65.90;100006.00;5033373;28;20092;-47
2022/05/23 09:53:52;;;;;;;12.25;5.40;;;;;;;19.18;66.00;99997.72;5033363;28;20037;-49
2022/05/23 09:56:41;;;;;;;10.27;4.95;;;;;;;19.19;66.09;99991.00;5034360;28;20071;-47
2022/05/23 09:59:32;;;;;;;12.52;5.22;;;;;;;19.20;67.43;99973.31;5033854;28;20045;-46
2022/05/23 10:02:32;;;;;;;11.27;5.78;;;;;;;19.23;66.68;99981.69;5018814;28;20096;-50
2022/05/23 10:04:59;;;;;;;19.48;5.75;;;;;;;19.27;66.96;99981.81;5032971;28;20139;-48
2022/05/23 10:07:34;;;;;;;12.52;5.30;;;;;;;19.28;66.67;99967.66;5032845;28;20050;-50
2022/05/23 10:10:23;;;;;;;13.48;4.57;;;;;;;19.32;66.61;99967.78;5033445;28;20488;-46
2022/05/23 10:13:18;;;;;;;9.93;4.80;;;;;;;19.39;65.75;99959.69;5033201;28;20037;-46
2022/05/23 10:15:55;;;;;;;12.32;5.70;;;;;;;19.47;65.85;99960.72;5032963;28;20072;-46
2022/05/23 10:18:29;;;;;;;15.80;6.30;;;;;;;19.52;65.75;99957.69;5042155;28;20235;-47
2022/05/23 10:20:58;;;;;;;16.17;6.28;;;;;;;19.59;65.80;99960.69;5045979;28;20045;-47
2022/05/23 10:23:30;;;;;;;14.27;5.57;;;;;;;19.63;64.99;99956.06;5042305;28;20053;-47
2022/05/23 10:26:23;;;;;;;13.07;5.45;;;;;;;19.75;64.27;99955.25;5046841;28;20045;-46
2022/05/23 10:29:20;;;;;;;12.80;5.93;;;;;;;19.81;64.95;99961.31;5030944;28;20059;-45
2022/05/23 10:32:09;;;;;;;11.77;6.03;;;;;;;19.85;65.28;99949.22;5051393;28;20484;-50
2022/05/23 10:35:26;;;;;;;13.77;6.10;;;;;;;19.93;63.65;99953.78;5037548;28;20098;-48
2022/05/23 10:45:03;;;;;;;13.32;5.50;;;;;;;20.21;62.39;99941.91;5052206;28;20057;-48
2022/05/23 10:48:56;;;;;;;14.77;6.32;;;;;;;20.32;63.09;99942.16;5047801;28;20041;-48
2022/05/23 10:51:57;;;;;;;17.67;7.00;;;;;;;20.45;63.55;99940.16;4988848;28;20074;-43
2022/05/23 10:54:47;;;;;;;13.32;6.75;;;;;;;20.54;62.49;99932.44;5031504;28;20117;-47
2022/05/23 10:58:07;;;;;;;12.70;5.80;;;;;;;20.60;61.53;99922.75;5037382;28;20068;-46
2022/05/23 11:00:36;;;;;;;18.00;7.05;;;;;;;20.60;61.25;99920.00;5031332;28;20054;-45
2022/05/23 11:03:19;;;;;;;11.00;5.82;;;;;;;20.59;61.39;99907.31;5031251;28;20132;-47
2022/05/23 11:05:54;;;;;;;12.02;5.60;;;;;;;20.61;62.00;99897.50;5031291;28;20041;-47
2022/05/23 11:08:36;;;;;;;12.30;5.15;;;;;;;20.66;59.15;99895.59;5027612;28;20395;-48
2022/05/23 11:11:18;;;;;;;12.23;4.70;;;;;;;20.67;59.37;99883.38;5051369;28;20411;-46
2022/05/23 11:14:08;;;;;;;12.65;4.97;;;;;;;20.69;60.10;99884.63;5049520;28;20037;-46
2022/05/23 11:17:00;;;;;;;13.52;5.38;;;;;;;20.77;59.20;99875.31;5046585;28;20047;-45
2022/05/23 11:19:54;;;;;;;10.07;5.00;;;;;;;20.82;59.57;99861.19;5034887;28;20048;-47
2022/05/23 11:22:35;;;;;;;13.50;4.70;;;;;;;20.86;59.69;99855.75;5051307;28;20052;-48
2022/05/23 11:25:21;;;;;;;10.38;4.22;;;;;;;20.95;58.78;99852.75;5033308;28;20034;-46
2022/05/23 11:34:28;;;;;;;8.70;4.82;;;;;;;21.15;58.43;99806.50;5021169;28;20044;-48
2022/05/23 11:40:14;;;;;;;10.00;4.82;;;;;;;21.19;56.53;99790.75;5034789;28;20049;-46
2022/05/23 11:43:16;;;;;;;10.95;4.75;;;;;;;21.23;56.48;99772.22;5022195;28;20050;-47
2022/05/23 11:46:06;;;;;;;13.60;5.07;;;;;;;21.23;57.12;99773.03;5035069;28;20390;-47
2022/05/23 11:48:58;;;;;;;10.55;4.10;;;;;;;21.30;57.89;99774.34;5043882;28;20053;-46
2022/05/23 11:51:36;;;;;;;10.85;4.30;;;;;;;21.37;57.75;99775.28;5038157;28;20068;-46
2022/05/23 11:54:13;;;;;;;12.38;4.55;;;;;;;21.39;57.72;99778.53;5055424;28;20511;-47
2022/05/23 11:57:00;;;;;;;11.93;3.90;;;;;;;21.40;56.32;99763.47;5039589;28;20050;-46
2022/05/23 11:59:28;;;;;;;11.20;4.20;;;;;;;21.47;55.97;99768.38;5034087;28;20049;-43
2022/05/23 12:02:08;;;;;;;9.70;4.22;;;;;;;21.49;56.23;99774.34;5035862;28;20063;-45
2022/05/23 12:04:56;;;;;;;8.95;3.35;;;;;;;21.50;55.77;99762.06;5036426;28;20139;-47
2022/05/23 12:07:34;;;;;;;14.70;4.15;;;;;;;21.60;55.03;99752.34;5017602;28;20048;-47
2022/05/23 12:10:20;;;;;;;11.45;3.97;;;;;;;21.61;55.94;99751.19;5054053;28;20048;-46
2022/05/23 12:12:49;;;;;;;10.70;4.18;;;;;;;21.64;55.44;99745.69;5055359;28;20045;-45
2022/05/23 12:15:42;;;;;;;11.85;3.97;;;;;;;21.63;56.48;99743.31;5049435;28;20082;-45
2022/05/23 12:18:23;;;;;;;10.77;3.50;;;;;;;21.61;53.82;99738.13;5052089;28;20052;-47
2022/05/23 12:21:06;;;;;;;9.25;3.28;;;;;;;21.57;53.44;99744.78;5053881;28;20036;-46
2022/05/23 12:23:41;;;;;;;6.70;3.28;;;;;;;21.54;53.77;99745.53;5038335;28;20041;-47
2022/05/23 12:26:26;;;;;;;9.40;3.45;;;;;;;21.56;53.52;99745.97;5033930;28;20041;-47
2022/05/23 12:29:36;;;;;;;10.77;3.00;;;;;;;21.50;54.23;99751.00;5013937;28;20044;-47
2022/05/23 12:32:05;;;;;;;10.90;3.35;;;;;;;21.42;54.96;99743.72;5033921;28;20492;-46
2022/05/23 12:34:56;;;;;;;6.70;3.08;;;;;;;21.35;54.39;99738.03;5035777;28;20104;-47
2022/05/23 12:38:00;;;;;;;8.70;3.20;;;;;;;21.31;55.20;99737.16;5033246;28;20124;-48
2022/05/23 12:40:39;;;;;;;8.07;3.00;;;;;;;21.35;55.01;99738.03;5015415;28;20312;-46
2022/05/23 12:43:54;;;;;;;11.57;3.55;;;;;;;21.35;54.32;99724.97;5037251;28;20515;-48
2022/05/23 12:46:58;;;;;;;6.40;3.10;;;;;;;21.34;55.29;99720.59;5019509;28;20052;-46
2022/05/23 12:50:01;;;;;;;6.53;3.30;;;;;;;21.35;54.89;99713.09;5034705;28;20140;-47
2022/05/23 12:52:36;;;;;;;7.95;3.17;;;;;;;21.34;55.08;99719.81;5034965;28;20511;-47
2022/05/23 12:55:14;;;;;;;12.13;3.80;;;;;;;21.32;55.56;99717.41;5037022;28;20041;-49
2022/05/23 12:58:02;;;;;;;9.75;3.40;;;;;;;21.34;55.89;99711.50;5033454;28;20041;-45
2022/05/23 13:00:46;;;;;;;14.80;3.83;;;;;;;21.36;56.25;99701.66;5034815;28;20083;-48
2022/05/23 13:03:30;;;;;;;6.28;3.15;;;;;;;21.40;56.44;99688.66;5039759;28;20145;-46
2022/05/23 13:06:09;;;;;;;9.20;3.25;;;;;;;21.43;56.13;99696.25;5034647;28;20053;-50
2022/05/23 13:08:51;;;;;;;13.43;3.15;;;;;;;21.46;55.69;99683.63;5017145;28;20496;-48
2022/05/23 13:11:27;;;;;;;8.73;3.28;;;;;;;21.44;55.77;99675.69;5033184;28;20125;-48
2022/05/23 13:13:58;;;;;;;13.23;3.55;;;;;;;21.46;56.26;99683.63;5032754;28;20124;-53
2022/05/23 13:16:37;;;;;;;7.35;2.80;;;;;;;21.47;56.54;99674.13;5017271;28;20041;-47
2022/05/23 13:22:22;;;;;;;8.82;2.88;;;;;;;21.51;57.30;99666.69;5033040;28;20543;-48
2022/05/23 13:24:55;;;;;;;6.57;3.10;;;;;;;21.54;57.83;99663.16;5043661;28;20041;-48
2022/05/23 13:27:50;;;;;;;11.15;3.78;;;;;;;21.56;57.97;99657.25;5039894;28;20060;-50
2022/05/23 13:30:31;;;;;;;8.30;2.92;;;;;;;21.58;58.40;99654.94;5052426;28;20075;-47
2022/05/23 13:33:26;;;;;;;8.40;3.53;;;;;;;21.58;58.62;99650.19;5051479;28;20059;-49
2022/05/23 13:36:46;;;;;;;8.86;3.09;;;;;;;21.59;58.97;99651.75;5008099;28;10001182;-44
2022/05/23 13:39:21;;;;;;;8.43;3.20;;;;;;;21.63;58.74;99647.09;5039624;28;20839;-47
2022/05/23 13:41:49;;;;;;;9.93;3.35;;;;;;;21.63;58.27;99641.53;5031675;28;20471;-46
2022/05/23 13:44:28;;;;;;;6.30;3.13;;;;;;;21.64;58.46;99645.91;5040132;28;20043;-47
2022/05/23 13:47:08;;;;;;;8.95;3.63;;;;;;;21.66;59.08;99645.53;5050425;28;20122;-45